sensor_id;sensor_type;location;lat;lon;timestamp;P1;durP1;ratioP1;P2;durP2;ratioP2
34405;SDS011;20658;45.630;8.886;2023-05-21T00:02:06;2.83;;;1.40;;
34405;SDS011;20658;45.630;8.886;2023-05-21T00:04:42;3.00;;;1.67;;
34405;SDS011;20658;45.630;8.886;2023-05-21T00:07:16;5.65;;;1.30;;
34405;SDS011;20658;45.630;8.886;2023-05-21T00:09:50;3.00;;;1.55;;
34405;SDS011;20658;45.630;8.886;2023-05-21T00:12:25;4.50;;;1.83;;
34405;SDS011;20658;45.630;8.886;2023-05-21T00:14:59;3.30;;;1.40;;
34405;SDS011;20658;45.630;8.886;2023-05-21T00:17:33;2.67;;;1.58;;
34405;SDS011;20658;45.630;8.886;2023-05-21T00:20:07;7.28;;;1.60;;
34405;SDS011;20658;45.630;8.886;2023-05-21T00:22:41;5.78;;;1.45;;
34405;SDS011;20658;45.630;8.886;2023-05-21T00:25:15;8.40;;;1.75;;
34405;SDS011;20658;45.630;8.886;2023-05-21T00:27:50;2.30;;;1.40;;
34405;SDS011;20658;45.630;8.886;2023-05-21T00:30:24;3.38;;;1.73;;
34405;SDS011;20658;45.630;8.886;2023-05-21T00:32:57;4.93;;;1.75;;
34405;SDS011;20658;45.630;8.886;2023-05-21T00:35:32;8.88;;;2.00;;
34405;SDS011;20658;45.630;8.886;2023-05-21T00:38:06;4.95;;;2.10;;
34405;SDS011;20658;45.630;8.886;2023-05-21T00:40:39;6.95;;;1.58;;
34405;SDS011;20658;45.630;8.886;2023-05-21T00:43:14;4.53;;;1.70;;
34405;SDS011;20658;45.630;8.886;2023-05-21T00:45:48;6.00;;;1.92;;
34405;SDS011;20658;45.630;8.886;2023-05-21T00:48:24;8.93;;;1.75;;
34405;SDS011;20658;45.630;8.886;2023-05-21T00:50:53;2.78;;;1.80;;
34405;SDS011;20658;45.630;8.886;2023-05-21T00:53:26;8.20;;;2.60;;
34405;SDS011;20658;45.630;8.886;2023-05-21T00:56:00;6.63;;;1.85;;
34405;SDS011;20658;45.630;8.886;2023-05-21T00:58:36;3.50;;;1.70;;
34405;SDS011;20658;45.630;8.886;2023-05-21T01:01:10;4.43;;;2.05;;
34405;SDS011;20658;45.630;8.886;2023-05-21T01:03:44;2.40;;;1.77;;
34405;SDS011;20658;45.630;8.886;2023-05-21T01:06:18;6.00;;;2.30;;
34405;SDS011;20658;45.630;8.886;2023-05-21T01:08:52;5.65;;;2.33;;
34405;SDS011;20658;45.630;8.886;2023-05-21T01:11:29;5.60;;;2.08;;
34405;SDS011;20658;45.630;8.886;2023-05-21T01:14:12;3.72;;;2.10;;
34405;SDS011;20658;45.630;8.886;2023-05-21T01:16:49;2.90;;;1.70;;
34405;SDS011;20658;45.630;8.886;2023-05-21T01:19:23;7.22;;;1.83;;
34405;SDS011;20658;45.630;8.886;2023-05-21T01:22:00;3.58;;;1.52;;
34405;SDS011;20658;45.630;8.886;2023-05-21T01:24:38;7.45;;;1.77;;
34405;SDS011;20658;45.630;8.886;2023-05-21T01:27:12;3.10;;;1.40;;
34405;SDS011;20658;45.630;8.886;2023-05-21T01:29:47;1.50;;;1.20;;
34405;SDS011;20658;45.630;8.886;2023-05-21T01:32:22;2.28;;;1.27;;
34405;SDS011;20658;45.630;8.886;2023-05-21T01:35:07;1.75;;;0.88;;
34405;SDS011;20658;45.630;8.886;2023-05-21T01:37:45;3.90;;;1.23;;
34405;SDS011;20658;45.630;8.886;2023-05-21T01:40:25;1.48;;;1.00;;
34405;SDS011;20658;45.630;8.886;2023-05-21T01:43:03;3.67;;;1.20;;
34405;SDS011;20658;45.630;8.886;2023-05-21T01:45:39;2.38;;;0.82;;
34405;SDS011;20658;45.630;8.886;2023-05-21T01:48:14;3.97;;;1.60;;
34405;SDS011;20658;45.630;8.886;2023-05-21T01:50:49;6.88;;;3.25;;
34405;SDS011;20658;45.630;8.886;2023-05-21T01:53:25;2.72;;;1.48;;
34405;SDS011;20658;45.630;8.886;2023-05-21T01:56:00;3.72;;;1.58;;
34405;SDS011;20658;45.630;8.886;2023-05-21T01:58:34;5.57;;;1.20;;
34405;SDS011;20658;45.630;8.886;2023-05-21T02:01:07;4.68;;;1.45;;
34405;SDS011;20658;45.630;8.886;2023-05-21T02:03:42;2.38;;;1.00;;
34405;SDS011;20658;45.630;8.886;2023-05-21T02:06:15;9.20;;;2.60;;
34405;SDS011;20658;45.630;8.886;2023-05-21T02:08:49;5.47;;;1.70;;
34405;SDS011;20658;45.630;8.886;2023-05-21T02:11:24;3.17;;;1.10;;
34405;SDS011;20658;45.630;8.886;2023-05-21T02:13:58;2.85;;;0.80;;
34405;SDS011;20658;45.630;8.886;2023-05-21T02:16:31;2.22;;;0.93;;
34405;SDS011;20658;45.630;8.886;2023-05-21T02:19:04;1.55;;;0.85;;
34405;SDS011;20658;45.630;8.886;2023-05-21T02:21:40;3.88;;;1.50;;
34405;SDS011;20658;45.630;8.886;2023-05-21T02:24:16;2.22;;;0.95;;
34405;SDS011;20658;45.630;8.886;2023-05-21T02:26:51;2.40;;;1.05;;
34405;SDS011;20658;45.630;8.886;2023-05-21T02:29:25;1.45;;;0.90;;
34405;SDS011;20658;45.630;8.886;2023-05-21T02:31:58;5.30;;;2.10;;
34405;SDS011;20658;45.630;8.886;2023-05-21T02:34:31;2.00;;;1.00;;
34405;SDS011;20658;45.630;8.886;2023-05-21T02:37:07;1.27;;;0.73;;
34405;SDS011;20658;45.630;8.886;2023-05-21T02:39:41;1.95;;;0.85;;
34405;SDS011;20658;45.630;8.886;2023-05-21T02:42:16;1.67;;;0.93;;
34405;SDS011;20658;45.630;8.886;2023-05-21T02:44:49;1.40;;;1.00;;
34405;SDS011;20658;45.630;8.886;2023-05-21T02:47:24;1.45;;;0.82;;
34405;SDS011;20658;45.630;8.886;2023-05-21T02:49:58;3.55;;;1.10;;
34405;SDS011;20658;45.630;8.886;2023-05-21T02:52:34;1.83;;;0.80;;
34405;SDS011;20658;45.630;8.886;2023-05-21T02:55:08;3.05;;;0.90;;
34405;SDS011;20658;45.630;8.886;2023-05-21T02:57:43;1.05;;;0.70;;
34405;SDS011;20658;45.630;8.886;2023-05-21T03:00:16;1.33;;;0.85;;
34405;SDS011;20658;45.630;8.886;2023-05-21T03:02:50;1.85;;;0.90;;
34405;SDS011;20658;45.630;8.886;2023-05-21T03:05:23;6.75;;;0.90;;
34405;SDS011;20658;45.630;8.886;2023-05-21T03:07:57;1.05;;;0.80;;
34405;SDS011;20658;45.630;8.886;2023-05-21T03:10:30;1.98;;;0.70;;
34405;SDS011;20658;45.630;8.886;2023-05-21T03:13:05;2.17;;;0.70;;
34405;SDS011;20658;45.630;8.886;2023-05-21T03:15:38;3.50;;;0.85;;
34405;SDS011;20658;45.630;8.886;2023-05-21T03:18:14;1.80;;;0.80;;
34405;SDS011;20658;45.630;8.886;2023-05-21T03:20:47;2.38;;;0.88;;
34405;SDS011;20658;45.630;8.886;2023-05-21T03:23:20;2.80;;;1.05;;
34405;SDS011;20658;45.630;8.886;2023-05-21T03:25:54;4.47;;;1.10;;
34405;SDS011;20658;45.630;8.886;2023-05-21T03:28:29;2.58;;;0.60;;
34405;SDS011;20658;45.630;8.886;2023-05-21T03:31:03;1.02;;;0.70;;
34405;SDS011;20658;45.630;8.886;2023-05-21T03:33:47;2.20;;;0.90;;
34405;SDS011;20658;45.630;8.886;2023-05-21T03:36:25;2.97;;;0.75;;
34405;SDS011;20658;45.630;8.886;2023-05-21T03:38:55;2.42;;;0.90;;
34405;SDS011;20658;45.630;8.886;2023-05-21T03:41:31;4.05;;;1.15;;
34405;SDS011;20658;45.630;8.886;2023-05-21T03:44:10;2.65;;;0.88;;
34405;SDS011;20658;45.630;8.886;2023-05-21T03:46:58;3.13;;;0.82;;
34405;SDS011;20658;45.630;8.886;2023-05-21T03:49:30;2.65;;;1.23;;
34405;SDS011;20658;45.630;8.886;2023-05-21T03:51:59;4.72;;;1.10;;
34405;SDS011;20658;45.630;8.886;2023-05-21T03:54:32;3.55;;;1.08;;
34405;SDS011;20658;45.630;8.886;2023-05-21T03:57:05;3.10;;;1.08;;
34405;SDS011;20658;45.630;8.886;2023-05-21T03:59:35;2.17;;;0.98;;
34405;SDS011;20658;45.630;8.886;2023-05-21T04:02:08;7.78;;;1.35;;
34405;SDS011;20658;45.630;8.886;2023-05-21T04:04:42;6.47;;;1.27;;
34405;SDS011;20658;45.630;8.886;2023-05-21T04:07:10;6.28;;;1.20;;
34405;SDS011;20658;45.630;8.886;2023-05-21T04:09:45;3.63;;;0.98;;
34405;SDS011;20658;45.630;8.886;2023-05-21T04:12:14;3.40;;;1.20;;
34405;SDS011;20658;45.630;8.886;2023-05-21T04:14:49;1.80;;;0.80;;
34405;SDS011;20658;45.630;8.886;2023-05-21T04:17:23;7.78;;;1.50;;
34405;SDS011;20658;45.630;8.886;2023-05-21T04:19:57;8.48;;;1.40;;
34405;SDS011;20658;45.630;8.886;2023-05-21T04:22:30;3.53;;;1.50;;
34405;SDS011;20658;45.630;8.886;2023-05-21T04:25:05;3.50;;;1.25;;
34405;SDS011;20658;45.630;8.886;2023-05-21T04:27:40;2.75;;;1.00;;
34405;SDS011;20658;45.630;8.886;2023-05-21T04:30:14;3.83;;;1.20;;
34405;SDS011;20658;45.630;8.886;2023-05-21T04:32:50;1.95;;;1.38;;
34405;SDS011;20658;45.630;8.886;2023-05-21T04:35:25;1.48;;;0.93;;
34405;SDS011;20658;45.630;8.886;2023-05-21T04:37:58;4.88;;;1.17;;
34405;SDS011;20658;45.630;8.886;2023-05-21T04:40:27;3.88;;;1.30;;
34405;SDS011;20658;45.630;8.886;2023-05-21T04:42:55;4.40;;;1.02;;
34405;SDS011;20658;45.630;8.886;2023-05-21T04:45:31;15.02;;;2.00;;
34405;SDS011;20658;45.630;8.886;2023-05-21T04:48:05;2.22;;;1.00;;
34405;SDS011;20658;45.630;8.886;2023-05-21T04:50:39;5.47;;;1.85;;
34405;SDS011;20658;45.630;8.886;2023-05-21T04:53:08;5.28;;;1.17;;
34405;SDS011;20658;45.630;8.886;2023-05-21T04:55:36;4.90;;;1.58;;
34405;SDS011;20658;45.630;8.886;2023-05-21T04:58:05;2.58;;;1.25;;
34405;SDS011;20658;45.630;8.886;2023-05-21T05:00:42;2.17;;;1.30;;
34405;SDS011;20658;45.630;8.886;2023-05-21T05:03:17;2.30;;;1.25;;
34405;SDS011;20658;45.630;8.886;2023-05-21T05:05:50;6.00;;;1.55;;
34405;SDS011;20658;45.630;8.886;2023-05-21T05:08:24;1.98;;;1.10;;
34405;SDS011;20658;45.630;8.886;2023-05-21T05:10:57;4.38;;;1.23;;
34405;SDS011;20658;45.630;8.886;2023-05-21T05:13:31;5.10;;;1.05;;
34405;SDS011;20658;45.630;8.886;2023-05-21T05:16:07;2.80;;;1.45;;
34405;SDS011;20658;45.630;8.886;2023-05-21T05:18:36;2.95;;;1.27;;
34405;SDS011;20658;45.630;8.886;2023-05-21T05:21:10;2.40;;;1.70;;
34405;SDS011;20658;45.630;8.886;2023-05-21T05:23:38;4.22;;;1.15;;
34405;SDS011;20658;45.630;8.886;2023-05-21T05:26:07;2.92;;;1.33;;
34405;SDS011;20658;45.630;8.886;2023-05-21T05:28:36;2.10;;;1.20;;
34405;SDS011;20658;45.630;8.886;2023-05-21T05:31:06;3.33;;;1.30;;
34405;SDS011;20658;45.630;8.886;2023-05-21T05:33:42;4.32;;;1.60;;
34405;SDS011;20658;45.630;8.886;2023-05-21T05:36:10;2.25;;;1.30;;
34405;SDS011;20658;45.630;8.886;2023-05-21T05:38:39;3.60;;;1.45;;
34405;SDS011;20658;45.630;8.886;2023-05-21T05:41:12;3.90;;;1.77;;
34405;SDS011;20658;45.630;8.886;2023-05-21T05:43:47;2.95;;;2.00;;
34405;SDS011;20658;45.630;8.886;2023-05-21T05:46:25;4.43;;;1.77;;
34405;SDS011;20658;45.630;8.886;2023-05-21T05:49:01;5.38;;;1.73;;
34405;SDS011;20658;45.630;8.886;2023-05-21T05:51:35;5.65;;;2.53;;
34405;SDS011;20658;45.630;8.886;2023-05-21T05:54:04;6.47;;;2.00;;
34405;SDS011;20658;45.630;8.886;2023-05-21T05:56:33;3.53;;;1.98;;
34405;SDS011;20658;45.630;8.886;2023-05-21T05:59:03;4.38;;;2.08;;
34405;SDS011;20658;45.630;8.886;2023-05-21T06:01:36;8.20;;;2.08;;
34405;SDS011;20658;45.630;8.886;2023-05-21T06:04:05;5.40;;;2.58;;
34405;SDS011;20658;45.630;8.886;2023-05-21T06:06:34;6.45;;;2.22;;
34405;SDS011;20658;45.630;8.886;2023-05-21T06:09:08;3.22;;;2.15;;
34405;SDS011;20658;45.630;8.886;2023-05-21T06:11:41;6.22;;;2.30;;
34405;SDS011;20658;45.630;8.886;2023-05-21T06:14:15;5.40;;;2.13;;
34405;SDS011;20658;45.630;8.886;2023-05-21T06:16:49;7.35;;;2.28;;
34405;SDS011;20658;45.630;8.886;2023-05-21T06:19:19;7.28;;;2.00;;
34405;SDS011;20658;45.630;8.886;2023-05-21T06:21:52;4.45;;;2.63;;
34405;SDS011;20658;45.630;8.886;2023-05-21T06:24:25;3.33;;;2.10;;
34405;SDS011;20658;45.630;8.886;2023-05-21T06:26:59;3.95;;;1.90;;
34405;SDS011;20658;45.630;8.886;2023-05-21T06:29:34;4.65;;;2.22;;
34405;SDS011;20658;45.630;8.886;2023-05-21T06:32:09;4.97;;;2.55;;
34405;SDS011;20658;45.630;8.886;2023-05-21T06:34:42;4.47;;;2.20;;
34405;SDS011;20658;45.630;8.886;2023-05-21T06:37:18;7.65;;;1.83;;
34405;SDS011;20658;45.630;8.886;2023-05-21T06:39:53;8.40;;;2.25;;
34405;SDS011;20658;45.630;8.886;2023-05-21T06:42:28;5.18;;;2.70;;
34405;SDS011;20658;45.630;8.886;2023-05-21T06:45:17;5.90;;;2.78;;
34405;SDS011;20658;45.630;8.886;2023-05-21T06:47:57;8.68;;;2.95;;
34405;SDS011;20658;45.630;8.886;2023-05-21T06:50:25;6.25;;;2.95;;
34405;SDS011;20658;45.630;8.886;2023-05-21T06:52:59;4.60;;;2.47;;
34405;SDS011;20658;45.630;8.886;2023-05-21T06:55:33;5.90;;;2.55;;
34405;SDS011;20658;45.630;8.886;2023-05-21T06:58:16;6.88;;;2.50;;
34405;SDS011;20658;45.630;8.886;2023-05-21T07:00:49;6.57;;;2.70;;
34405;SDS011;20658;45.630;8.886;2023-05-21T07:03:25;6.05;;;2.70;;
34405;SDS011;20658;45.630;8.886;2023-05-21T07:05:59;6.72;;;2.90;;
34405;SDS011;20658;45.630;8.886;2023-05-21T07:08:32;7.35;;;3.28;;
34405;SDS011;20658;45.630;8.886;2023-05-21T07:11:05;6.78;;;2.78;;
34405;SDS011;20658;45.630;8.886;2023-05-21T07:13:39;5.28;;;2.28;;
34405;SDS011;20658;45.630;8.886;2023-05-21T07:16:13;7.03;;;2.75;;
34405;SDS011;20658;45.630;8.886;2023-05-21T07:18:49;7.20;;;2.83;;
34405;SDS011;20658;45.630;8.886;2023-05-21T07:21:23;5.47;;;2.40;;
34405;SDS011;20658;45.630;8.886;2023-05-21T07:23:57;5.28;;;3.00;;
34405;SDS011;20658;45.630;8.886;2023-05-21T07:26:30;7.55;;;2.75;;
34405;SDS011;20658;45.630;8.886;2023-05-21T07:29:03;6.78;;;3.33;;
34405;SDS011;20658;45.630;8.886;2023-05-21T07:31:37;5.22;;;2.38;;
34405;SDS011;20658;45.630;8.886;2023-05-21T07:34:12;5.43;;;2.83;;
34405;SDS011;20658;45.630;8.886;2023-05-21T07:36:45;9.63;;;2.72;;
34405;SDS011;20658;45.630;8.886;2023-05-21T07:39:18;8.85;;;2.85;;
34405;SDS011;20658;45.630;8.886;2023-05-21T07:41:52;7.03;;;2.58;;
34405;SDS011;20658;45.630;8.886;2023-05-21T07:44:25;5.55;;;3.10;;
34405;SDS011;20658;45.630;8.886;2023-05-21T07:46:59;5.63;;;3.22;;
34405;SDS011;20658;45.630;8.886;2023-05-21T07:49:34;8.05;;;3.20;;
34405;SDS011;20658;45.630;8.886;2023-05-21T07:52:07;4.90;;;2.88;;
34405;SDS011;20658;45.630;8.886;2023-05-21T07:54:41;7.50;;;3.22;;
34405;SDS011;20658;45.630;8.886;2023-05-21T07:57:15;6.90;;;2.80;;
34405;SDS011;20658;45.630;8.886;2023-05-21T08:00:00;10.13;;;3.08;;
34405;SDS011;20658;45.630;8.886;2023-05-21T08:02:40;7.55;;;2.97;;
34405;SDS011;20658;45.630;8.886;2023-05-21T08:05:15;6.10;;;3.30;;
34405;SDS011;20658;45.630;8.886;2023-05-21T08:07:49;5.70;;;2.97;;
34405;SDS011;20658;45.630;8.886;2023-05-21T08:10:18;7.55;;;3.10;;
34405;SDS011;20658;45.630;8.886;2023-05-21T08:12:52;4.50;;;3.10;;
34405;SDS011;20658;45.630;8.886;2023-05-21T08:15:26;7.55;;;3.30;;
34405;SDS011;20658;45.630;8.886;2023-05-21T08:17:59;8.38;;;3.25;;
34405;SDS011;20658;45.630;8.886;2023-05-21T08:20:30;5.03;;;2.90;;
34405;SDS011;20658;45.630;8.886;2023-05-21T08:23:05;6.18;;;3.17;;
34405;SDS011;20658;45.630;8.886;2023-05-21T08:25:46;10.25;;;4.10;;
34405;SDS011;20658;45.630;8.886;2023-05-21T08:28:20;7.70;;;3.63;;
34405;SDS011;20658;45.630;8.886;2023-05-21T08:30:54;7.43;;;3.15;;
34405;SDS011;20658;45.630;8.886;2023-05-21T08:33:33;6.22;;;3.10;;
34405;SDS011;20658;45.630;8.886;2023-05-21T08:36:10;8.10;;;3.08;;
34405;SDS011;20658;45.630;8.886;2023-05-21T08:38:51;5.47;;;3.05;;
34405;SDS011;20658;45.630;8.886;2023-05-21T08:41:23;6.70;;;2.63;;
34405;SDS011;20658;45.630;8.886;2023-05-21T08:43:58;5.55;;;3.15;;
34405;SDS011;20658;45.630;8.886;2023-05-21T08:46:34;5.00;;;2.40;;
34405;SDS011;20658;45.630;8.886;2023-05-21T08:49:09;7.95;;;3.15;;
34405;SDS011;20658;45.630;8.886;2023-05-21T08:51:46;5.38;;;2.80;;
34405;SDS011;20658;45.630;8.886;2023-05-21T08:54:21;4.40;;;2.42;;
34405;SDS011;20658;45.630;8.886;2023-05-21T08:56:50;7.22;;;3.20;;
34405;SDS011;20658;45.630;8.886;2023-05-21T08:59:25;7.25;;;3.22;;
34405;SDS011;20658;45.630;8.886;2023-05-21T09:02:00;14.30;;;5.80;;
34405;SDS011;20658;45.630;8.886;2023-05-21T09:04:35;11.38;;;5.72;;
34405;SDS011;20658;45.630;8.886;2023-05-21T09:07:10;6.65;;;3.03;;
34405;SDS011;20658;45.630;8.886;2023-05-21T09:10:03;5.82;;;2.95;;
34405;SDS011;20658;45.630;8.886;2023-05-21T09:12:41;6.53;;;3.47;;
34405;SDS011;20658;45.630;8.886;2023-05-21T09:15:14;6.47;;;2.85;;
34405;SDS011;20658;45.630;8.886;2023-05-21T09:17:48;8.60;;;3.63;;
34405;SDS011;20658;45.630;8.886;2023-05-21T09:20:57;5.72;;;2.30;;
34405;SDS011;20658;45.630;8.886;2023-05-21T09:24:00;7.30;;;2.70;;
34405;SDS011;20658;45.630;8.886;2023-05-21T09:26:33;8.20;;;3.05;;
34405;SDS011;20658;45.630;8.886;2023-05-21T09:29:07;5.30;;;3.00;;
34405;SDS011;20658;45.630;8.886;2023-05-21T09:31:41;9.05;;;3.10;;
34405;SDS011;20658;45.630;8.886;2023-05-21T09:34:16;5.28;;;2.40;;
34405;SDS011;20658;45.630;8.886;2023-05-21T09:36:49;4.65;;;2.40;;
34405;SDS011;20658;45.630;8.886;2023-05-21T09:39:29;4.50;;;2.72;;
34405;SDS011;20658;45.630;8.886;2023-05-21T09:42:03;8.25;;;3.17;;
34405;SDS011;20658;45.630;8.886;2023-05-21T09:44:37;11.07;;;2.92;;
34405;SDS011;20658;45.630;8.886;2023-05-21T09:47:12;10.15;;;3.35;;
34405;SDS011;20658;45.630;8.886;2023-05-21T09:49:52;4.78;;;2.58;;
34405;SDS011;20658;45.630;8.886;2023-05-21T09:52:29;6.82;;;2.88;;
34405;SDS011;20658;45.630;8.886;2023-05-21T09:55:05;5.43;;;3.13;;
34405;SDS011;20658;45.630;8.886;2023-05-21T09:57:42;4.28;;;2.30;;
34405;SDS011;20658;45.630;8.886;2023-05-21T10:00:18;5.57;;;2.55;;
34405;SDS011;20658;45.630;8.886;2023-05-21T10:02:53;5.32;;;2.97;;
34405;SDS011;20658;45.630;8.886;2023-05-21T10:05:29;5.97;;;2.88;;
34405;SDS011;20658;45.630;8.886;2023-05-21T10:08:03;6.60;;;2.63;;
34405;SDS011;20658;45.630;8.886;2023-05-21T10:10:40;4.35;;;2.67;;
34405;SDS011;20658;45.630;8.886;2023-05-21T10:13:17;6.65;;;2.90;;
34405;SDS011;20658;45.630;8.886;2023-05-21T10:15:49;4.95;;;3.25;;
34405;SDS011;20658;45.630;8.886;2023-05-21T10:18:32;8.98;;;3.53;;
34405;SDS011;20658;45.630;8.886;2023-05-21T10:21:08;5.82;;;3.10;;
34405;SDS011;20658;45.630;8.886;2023-05-21T10:23:42;12.85;;;3.72;;
34405;SDS011;20658;45.630;8.886;2023-05-21T10:26:19;7.72;;;3.47;;
34405;SDS011;20658;45.630;8.886;2023-05-21T10:28:54;6.70;;;4.18;;
34405;SDS011;20658;45.630;8.886;2023-05-21T10:31:30;11.55;;;4.32;;
34405;SDS011;20658;45.630;8.886;2023-05-21T10:34:05;9.48;;;4.10;;
34405;SDS011;20658;45.630;8.886;2023-05-21T10:36:38;7.75;;;4.10;;
34405;SDS011;20658;45.630;8.886;2023-05-21T10:39:12;10.05;;;4.60;;
34405;SDS011;20658;45.630;8.886;2023-05-21T10:41:45;7.90;;;4.88;;
34405;SDS011;20658;45.630;8.886;2023-05-21T10:44:31;9.85;;;5.15;;
34405;SDS011;20658;45.630;8.886;2023-05-21T10:47:22;8.43;;;3.88;;
34405;SDS011;20658;45.630;8.886;2023-05-21T10:50:31;6.75;;;3.55;;
34405;SDS011;20658;45.630;8.886;2023-05-21T10:53:24;7.78;;;3.95;;
34405;SDS011;20658;45.630;8.886;2023-05-21T10:56:11;7.68;;;3.33;;
34405;SDS011;20658;45.630;8.886;2023-05-21T10:59:00;6.93;;;3.70;;
34405;SDS011;20658;45.630;8.886;2023-05-21T11:01:52;4.40;;;2.83;;
34405;SDS011;20658;45.630;8.886;2023-05-21T11:04:27;6.95;;;3.47;;
34405;SDS011;20658;45.630;8.886;2023-05-21T11:06:59;7.60;;;3.50;;
34405;SDS011;20658;45.630;8.886;2023-05-21T11:09:28;5.20;;;3.08;;
34405;SDS011;20658;45.630;8.886;2023-05-21T11:12:02;6.40;;;3.28;;
34405;SDS011;20658;45.630;8.886;2023-05-21T11:14:40;9.13;;;4.00;;
34405;SDS011;20658;45.630;8.886;2023-05-21T11:17:14;12.07;;;3.55;;
34405;SDS011;20658;45.630;8.886;2023-05-21T11:19:49;4.25;;;2.70;;
34405;SDS011;20658;45.630;8.886;2023-05-21T11:22:23;7.13;;;3.85;;
34405;SDS011;20658;45.630;8.886;2023-05-21T11:25:00;4.93;;;3.05;;
34405;SDS011;20658;45.630;8.886;2023-05-21T11:27:35;7.55;;;3.90;;
34405;SDS011;20658;45.630;8.886;2023-05-21T11:30:13;8.63;;;3.30;;
34405;SDS011;20658;45.630;8.886;2023-05-21T11:35:56;6.20;;;2.95;;
34405;SDS011;20658;45.630;8.886;2023-05-21T11:38:30;5.95;;;3.58;;
34405;SDS011;20658;45.630;8.886;2023-05-21T11:41:04;5.30;;;3.17;;
34405;SDS011;20658;45.630;8.886;2023-05-21T11:43:33;8.27;;;4.55;;
34405;SDS011;20658;45.630;8.886;2023-05-21T11:46:13;7.65;;;3.92;;
34405;SDS011;20658;45.630;8.886;2023-05-21T11:48:47;7.07;;;4.05;;
34405;SDS011;20658;45.630;8.886;2023-05-21T11:51:22;12.13;;;4.20;;
34405;SDS011;20658;45.630;8.886;2023-05-21T11:53:57;7.70;;;4.45;;
34405;SDS011;20658;45.630;8.886;2023-05-21T11:56:31;7.50;;;4.00;;
34405;SDS011;20658;45.630;8.886;2023-05-21T11:59:06;13.02;;;4.15;;
34405;SDS011;20658;45.630;8.886;2023-05-21T12:01:48;9.93;;;4.72;;
34405;SDS011;20658;45.630;8.886;2023-05-21T12:04:21;8.57;;;4.30;;
34405;SDS011;20658;45.630;8.886;2023-05-21T12:06:55;8.73;;;4.10;;
34405;SDS011;20658;45.630;8.886;2023-05-21T12:09:28;7.97;;;4.28;;
34405;SDS011;20658;45.630;8.886;2023-05-21T12:12:02;10.70;;;4.40;;
34405;SDS011;20658;45.630;8.886;2023-05-21T12:14:36;8.27;;;4.97;;
34405;SDS011;20658;45.630;8.886;2023-05-21T12:17:14;6.38;;;4.07;;
34405;SDS011;20658;45.630;8.886;2023-05-21T12:19:49;8.48;;;4.50;;
34405;SDS011;20658;45.630;8.886;2023-05-21T12:22:19;4.95;;;3.45;;
34405;SDS011;20658;45.630;8.886;2023-05-21T12:24:55;8.02;;;4.43;;
34405;SDS011;20658;45.630;8.886;2023-05-21T12:27:26;5.78;;;4.10;;
34405;SDS011;20658;45.630;8.886;2023-05-21T12:30:00;6.55;;;4.63;;
34405;SDS011;20658;45.630;8.886;2023-05-21T12:32:37;8.45;;;5.00;;
34405;SDS011;20658;45.630;8.886;2023-05-21T12:35:20;9.00;;;4.68;;
34405;SDS011;20658;45.630;8.886;2023-05-21T12:37:54;7.95;;;4.80;;
34405;SDS011;20658;45.630;8.886;2023-05-21T12:40:37;9.50;;;4.50;;
34405;SDS011;20658;45.630;8.886;2023-05-21T12:43:11;6.18;;;4.30;;
34405;SDS011;20658;45.630;8.886;2023-05-21T12:45:45;10.48;;;4.22;;
34405;SDS011;20658;45.630;8.886;2023-05-21T12:48:19;7.40;;;4.03;;
34405;SDS011;20658;45.630;8.886;2023-05-21T12:50:53;8.27;;;4.53;;
34405;SDS011;20658;45.630;8.886;2023-05-21T12:53:21;6.85;;;4.45;;
34405;SDS011;20658;45.630;8.886;2023-05-21T12:55:55;9.23;;;4.75;;
34405;SDS011;20658;45.630;8.886;2023-05-21T12:58:39;13.00;;;5.07;;
34405;SDS011;20658;45.630;8.886;2023-05-21T13:01:13;9.88;;;5.57;;
34405;SDS011;20658;45.630;8.886;2023-05-21T13:03:48;8.75;;;5.10;;
34405;SDS011;20658;45.630;8.886;2023-05-21T13:06:23;8.20;;;4.57;;
34405;SDS011;20658;45.630;8.886;2023-05-21T13:08:56;11.70;;;5.22;;
34405;SDS011;20658;45.630;8.886;2023-05-21T13:11:30;8.90;;;4.85;;
34405;SDS011;20658;45.630;8.886;2023-05-21T13:14:03;12.75;;;5.35;;
34405;SDS011;20658;45.630;8.886;2023-05-21T13:16:36;10.93;;;5.25;;
34405;SDS011;20658;45.630;8.886;2023-05-21T13:19:11;8.35;;;4.95;;
34405;SDS011;20658;45.630;8.886;2023-05-21T13:21:40;9.32;;;5.32;;
34405;SDS011;20658;45.630;8.886;2023-05-21T13:24:14;9.07;;;4.82;;
34405;SDS011;20658;45.630;8.886;2023-05-21T13:26:47;11.15;;;5.40;;
34405;SDS011;20658;45.630;8.886;2023-05-21T13:29:21;11.20;;;4.75;;
34405;SDS011;20658;45.630;8.886;2023-05-21T13:31:54;13.55;;;5.65;;
34405;SDS011;20658;45.630;8.886;2023-05-21T13:34:29;8.02;;;5.18;;
34405;SDS011;20658;45.630;8.886;2023-05-21T13:37:02;11.15;;;5.88;;
34405;SDS011;20658;45.630;8.886;2023-05-21T13:39:35;7.95;;;4.88;;
34405;SDS011;20658;45.630;8.886;2023-05-21T13:42:09;7.80;;;5.72;;
34405;SDS011;20658;45.630;8.886;2023-05-21T13:44:42;9.55;;;6.47;;
34405;SDS011;20658;45.630;8.886;2023-05-21T13:47:16;11.55;;;6.72;;
34405;SDS011;20658;45.630;8.886;2023-05-21T13:49:51;12.18;;;6.65;;
34405;SDS011;20658;45.630;8.886;2023-05-21T13:52:24;9.18;;;6.13;;
34405;SDS011;20658;45.630;8.886;2023-05-21T13:54:58;8.93;;;5.75;;
34405;SDS011;20658;45.630;8.886;2023-05-21T13:57:26;8.18;;;6.00;;
34405;SDS011;20658;45.630;8.886;2023-05-21T14:00:01;13.05;;;6.57;;
34405;SDS011;20658;45.630;8.886;2023-05-21T14:05:08;11.35;;;6.55;;
34405;SDS011;20658;45.630;8.886;2023-05-21T14:07:42;9.95;;;6.60;;
34405;SDS011;20658;45.630;8.886;2023-05-21T14:10:18;10.88;;;7.15;;
34405;SDS011;20658;45.630;8.886;2023-05-21T14:12:51;9.38;;;6.38;;
34405;SDS011;20658;45.630;8.886;2023-05-21T14:15:25;9.48;;;6.20;;
34405;SDS011;20658;45.630;8.886;2023-05-21T14:17:58;8.65;;;5.93;;
34405;SDS011;20658;45.630;8.886;2023-05-21T14:20:33;11.68;;;6.03;;
34405;SDS011;20658;45.630;8.886;2023-05-21T14:23:06;12.43;;;6.35;;
34405;SDS011;20658;45.630;8.886;2023-05-21T14:25:41;15.13;;;7.30;;
34405;SDS011;20658;45.630;8.886;2023-05-21T14:28:15;9.65;;;6.47;;
34405;SDS011;20658;45.630;8.886;2023-05-21T14:30:48;14.35;;;7.25;;
34405;SDS011;20658;45.630;8.886;2023-05-21T14:33:17;10.65;;;6.63;;
34405;SDS011;20658;45.630;8.886;2023-05-21T14:35:51;9.70;;;5.63;;
34405;SDS011;20658;45.630;8.886;2023-05-21T14:38:20;11.50;;;6.45;;
34405;SDS011;20658;45.630;8.886;2023-05-21T14:40:53;14.07;;;6.95;;
34405;SDS011;20658;45.630;8.886;2023-05-21T14:43:27;11.35;;;6.97;;
34405;SDS011;20658;45.630;8.886;2023-05-21T14:45:55;9.93;;;7.20;;
34405;SDS011;20658;45.630;8.886;2023-05-21T14:48:28;9.98;;;6.20;;
34405;SDS011;20658;45.630;8.886;2023-05-21T14:51:03;12.13;;;6.53;;
34405;SDS011;20658;45.630;8.886;2023-05-21T14:53:37;9.82;;;6.00;;
34405;SDS011;20658;45.630;8.886;2023-05-21T14:56:10;10.43;;;6.35;;
34405;SDS011;20658;45.630;8.886;2023-05-21T14:58:44;8.73;;;5.60;;
34405;SDS011;20658;45.630;8.886;2023-05-21T15:01:18;12.55;;;6.57;;
34405;SDS011;20658;45.630;8.886;2023-05-21T15:03:51;13.10;;;7.25;;
34405;SDS011;20658;45.630;8.886;2023-05-21T15:06:28;13.35;;;6.22;;
34405;SDS011;20658;45.630;8.886;2023-05-21T15:09:02;9.90;;;6.47;;
34405;SDS011;20658;45.630;8.886;2023-05-21T15:11:36;9.98;;;6.13;;
34405;SDS011;20658;45.630;8.886;2023-05-21T15:14:10;7.55;;;5.68;;
34405;SDS011;20658;45.630;8.886;2023-05-21T15:16:43;8.77;;;5.90;;
34405;SDS011;20658;45.630;8.886;2023-05-21T15:19:17;10.02;;;6.18;;
34405;SDS011;20658;45.630;8.886;2023-05-21T15:21:52;11.18;;;6.45;;
34405;SDS011;20658;45.630;8.886;2023-05-21T15:24:25;14.23;;;6.65;;
34405;SDS011;20658;45.630;8.886;2023-05-21T15:26:59;11.18;;;6.28;;
34405;SDS011;20658;45.630;8.886;2023-05-21T15:29:32;8.90;;;6.35;;
34405;SDS011;20658;45.630;8.886;2023-05-21T15:32:06;9.10;;;6.00;;
34405;SDS011;20658;45.630;8.886;2023-05-21T15:34:39;12.77;;;7.05;;
34405;SDS011;20658;45.630;8.886;2023-05-21T15:37:14;9.52;;;5.50;;